Terminal Aerodrome Forecast
Issued by NWS Wakefield, VA

Home | Current Version | Previous Version | Text Only | Print | Product List | Glossary On
Versions: 1 2 3 4 5 6 7 8 9 10 11 12 13 14
000
FTUS41 KAKQ 171100
TAFECG
TAF
KECG 171120Z 1712/1812 03009KT P6SM BKN060 OVC080
     FM171800 07009KT P6SM BKN060
     FM180800 03005KT 2SM BR BKN020=

USA.gov is the U.S. government's official web portal to all federal, state and local government web resources and services.